Weather History for KGUS - December, 2011

Change the Weather History Date:

Monday, December 5, 2011

  Actual Average Record
Temperature  
Mean Temperature 36 °F -  
Max Temperature 39 °F 40 °F 68 °F (2001)
Min Temperature 32 °F 28 °F 3 °F (2005)
Degree Days  
Heating Degree Days 30    
Moisture  
Dew Point 37 °F    
Average Humidity 100    
Maximum Humidity 100    
Minimum Humidity 99    
Precipitation  
Precipitation 0.71 in - - ()
Sea Level Pressure  
Sea Level Pressure 30.20 in    
Wind  
Wind Speed 8 mph (North)    
Max Wind Speed 18 mph    
Max Gust Speed 21 mph    
Visibility 6 miles    
Events Rain , Snow    
Averages and records for this station are not official NWS values.
T = Trace of Precipitation, MM = Missing Value Source: NWS Daily Summary

Daily Weather History Graph

Daily Weather History Graph

Search for Another Location

Airport or City:

Trip Planner

Search our weather history database for the weather conditions in past years. The results will help you decide how hot, cold, wet, or windy it might be!

Date:

Astronomy

Dec. 05, 2011 Rise Set
Actual Time 7:52 AM EST 5:17 PM EST
Civil Twilight 7:22 AM EST 5:47 PM EST
Nautical Twilight 6:48 AM EST 6:22 PM EST
Astronomical Twilight 6:15 AM EST 6:55 PM EST
Moon 2:15 PM EST (12/5) 3:12 AM EST (12/5)
Length of Visible Light 10h 25m
Length of Day
9h 24m
Waxing Gibbous, 79% of the Moon is Illuminated
Dec 5
Waxing Gibbous
Dec 10
Full
Dec 17
Last Quarter
Dec 24
New
Jan 1
First Quarter

Hourly Weather History & Observations

Time (EST) Temp. Windchill Dew Point Humidity Pressure Visibility Wind Dir Wind Speed Gust Speed Precip Events Conditions
12:01 AM 39.2 °F 34.2 °F 39.2 °F 100% 30.22 in 5.0 mi NNW 6.9 mph - N/A Rain Light Rain
12:55 AM 38.3 °F 34.8 °F 38.3 °F 100% 30.21 in 5.0 mi NNW 4.6 mph - 0.02 in Rain Light Rain
1:01 AM 39.2 °F 35.0 °F 39.2 °F 100% 30.21 in 5.0 mi North 5.8 mph - N/A Rain Light Rain
1:05 AM 37.4 °F 32.1 °F 37.4 °F 100% 30.20 in 5.0 mi NNW 6.9 mph - N/A Rain Light Rain
1:55 AM 38.1 °F 32.9 °F 38.1 °F 100% 30.20 in 5.0 mi NNW 6.9 mph - 0.03 in Rain Light Rain
1:58 AM 37.4 °F 32.8 °F 37.4 °F 100% 30.20 in 4.0 mi NNW 5.8 mph - N/A Rain Rain
2:01 AM 37.4 °F 32.1 °F 37.4 °F 100% 30.20 in 4.0 mi NNW 6.9 mph - N/A Rain Light Rain
2:12 AM 37.4 °F 32.1 °F 37.4 °F 100% 30.21 in 5.0 mi NNW 6.9 mph - N/A Rain Light Rain
2:17 AM 37.4 °F 32.8 °F 37.4 °F 100% 30.20 in 4.0 mi NNW 5.8 mph - N/A Rain Light Rain
2:27 AM 37.4 °F 32.1 °F 37.4 °F 100% 30.20 in 4.0 mi NNW 6.9 mph - N/A Rain Light Rain
2:28 AM 37.4 °F 32.1 °F 37.4 °F 100% 30.21 in 5.0 mi NNW 6.9 mph - N/A Rain Light Rain
2:55 AM 38.1 °F 34.6 °F 38.1 °F 100% 30.20 in 5.0 mi North 4.6 mph - 0.05 in Rain Light Rain
2:56 AM 37.4 °F 33.8 °F 37.4 °F 100% 30.20 in 5.0 mi North 4.6 mph - N/A Rain Light Rain
3:00 AM 37.4 °F 34.9 °F 37.4 °F 100% 30.20 in 5.0 mi North 3.5 mph - N/A Rain Light Rain
3:13 AM 37.4 °F 33.8 °F 37.4 °F 100% 30.20 in 5.0 mi North 4.6 mph - N/A Rain Light Rain
3:20 AM 37.4 °F 34.9 °F 37.4 °F 100% 30.19 in 4.0 mi North 3.5 mph - N/A Rain Light Rain
3:31 AM 37.4 °F 33.8 °F 37.4 °F 100% 30.19 in 5.0 mi North 4.6 mph - N/A Rain Light Rain
3:38 AM 37.4 °F 33.8 °F 37.4 °F 100% 30.19 in 5.0 mi North 4.6 mph - N/A Rain Light Rain
3:41 AM 37.4 °F 34.9 °F 37.4 °F 100% 30.19 in 5.0 mi North 3.5 mph - N/A Rain Light Rain
3:52 AM 37.4 °F 33.8 °F 37.4 °F 100% 30.19 in 5.0 mi North 4.6 mph - N/A Rain Light Rain
3:55 AM 37.9 °F 34.4 °F 37.9 °F 100% 30.19 in 5.0 mi North 4.6 mph - 0.04 in Rain Light Rain
3:57 AM 37.4 °F 32.8 °F 37.4 °F 100% 30.19 in 4.0 mi North 5.8 mph - N/A Rain Light Rain
4:03 AM 37.4 °F 32.1 °F 37.4 °F 100% 30.19 in 5.0 mi North 6.9 mph - N/A Rain Light Rain
4:07 AM 37.4 °F 33.8 °F 37.4 °F 100% 30.20 in 4.0 mi North 4.6 mph - N/A Rain Light Rain
4:12 AM 37.4 °F 32.8 °F 37.4 °F 100% 30.20 in 4.0 mi North 5.8 mph - N/A Rain Light Rain
4:16 AM 37.4 °F 32.1 °F 37.4 °F 100% 30.20 in 4.0 mi North 6.9 mph - N/A Rain Light Rain
4:17 AM 37.4 °F 32.8 °F 37.4 °F 100% 30.20 in 5.0 mi North 5.8 mph - N/A Rain Light Rain
4:26 AM 37.4 °F 32.1 °F 37.4 °F 100% 30.21 in 5.0 mi North 6.9 mph - N/A Rain Light Rain
4:32 AM 37.4 °F 32.1 °F 37.4 °F 100% 30.21 in 5.0 mi North 6.9 mph - N/A Rain Light Rain
4:35 AM 37.4 °F 32.1 °F 37.4 °F 100% 30.20 in 5.0 mi North 6.9 mph - N/A Rain Light Rain
4:45 AM 37.4 °F 31.4 °F 37.4 °F 100% 30.20 in 5.0 mi North 8.1 mph - N/A Rain Light Rain
4:46 AM 37.4 °F 31.4 °F 37.4 °F 100% 30.20 in 5.0 mi North 8.1 mph - N/A Rain Light Rain
4:49 AM 37.4 °F 32.1 °F 37.4 °F 100% 30.20 in 5.0 mi North 6.9 mph - N/A Rain Light Rain
4:55 AM 37.9 °F 32.7 °F 37.9 °F 100% 30.20 in 5.0 mi North 6.9 mph - 0.05 in Rain Light Rain
4:59 AM 37.4 °F 32.8 °F 37.4 °F 100% 30.20 in 5.0 mi NNE 5.8 mph - N/A Rain Light Rain
5:12 AM 37.4 °F 32.1 °F 37.4 °F 100% 30.20 in 5.0 mi NNE 6.9 mph - N/A Rain Light Rain
5:23 AM 37.4 °F 32.1 °F 37.4 °F 100% 30.20 in 5.0 mi NNE 6.9 mph - N/A Rain Light Rain
5:27 AM 37.4 °F 31.4 °F 37.4 °F 100% 30.20 in 5.0 mi NNE 8.1 mph - N/A Rain Light Rain
5:31 AM 37.4 °F 32.1 °F 37.4 °F 100% 30.20 in 5.0 mi NNE 6.9 mph - N/A Rain Light Rain
5:42 AM 37.4 °F 31.4 °F 37.4 °F 100% 30.21 in 5.0 mi North 8.1 mph - N/A Rain Light Rain
5:50 AM 37.4 °F 32.8 °F 37.4 °F 100% 30.22 in 5.0 mi North 5.8 mph - N/A Rain Light Rain
5:55 AM 37.9 °F 33.5 °F 37.9 °F 100% 30.22 in 5.0 mi North 5.8 mph - 0.04 in Rain Light Rain
5:57 AM 37.4 °F 32.1 °F 37.4 °F 100% 30.22 in 5.0 mi North 6.9 mph - N/A Rain Light Rain
6:55 AM 37.9 °F 33.5 °F 37.9 °F 100% 30.24 in 6.0 mi North 5.8 mph - 0.05 in Rain Light Rain
7:55 AM 37.8 °F 33.3 °F 37.8 °F 100% 30.22 in 6.0 mi North 5.8 mph - 0.02 in   Overcast
8:33 AM 37.4 °F 31.4 °F 37.4 °F 100% 30.21 in 7.0 mi NNE 8.1 mph - N/A Rain Light Rain
8:55 AM 37.8 °F 32.5 °F 37.8 °F 100% 30.21 in 7.0 mi NNE 6.9 mph - 0.00 in   Overcast
9:55 AM 37.9 °F 32.1 °F 37.9 °F 100% 30.23 in 7.0 mi North 8.1 mph - N/A   Overcast
10:30 AM 37.4 °F 31.4 °F 37.4 °F 100% 30.20 in 9.0 mi North 8.1 mph - N/A   Overcast
10:55 AM 38.5 °F 31.6 °F 38.5 °F 100% 30.20 in 10.0 mi NNE 10.4 mph - N/A   Overcast
11:08 AM 39.2 °F 33.0 °F 39.2 °F 100% 30.19 in 10.0 mi NNE 9.2 mph - N/A   Overcast
11:31 AM 39.2 °F 33.6 °F 39.2 °F 100% 30.20 in 10.0 mi North 8.1 mph - N/A Rain Light Rain
11:55 AM 38.3 °F 32.5 °F 38.3 °F 100% 30.20 in 9.0 mi NNE 8.1 mph - 0.01 in Rain Light Rain
12:55 PM 38.5 °F 32.7 °F 38.5 °F 100% 30.17 in 4.0 mi North 8.1 mph - 0.06 in Rain Light Rain
1:55 PM 38.5 °F 31.1 °F 38.5 °F 100% 30.17 in 6.0 mi North 11.5 mph - 0.04 in Rain Light Rain
2:17 PM 39.2 °F 33.6 °F 39.2 °F 100% 30.16 in 6.0 mi North 8.1 mph - N/A Rain Rain
2:55 PM 38.8 °F 32.6 °F 38.8 °F 100% 30.14 in 6.0 mi North 9.2 mph - 0.06 in Rain Light Rain
3:49 PM 39.2 °F 32.5 °F 39.2 °F 100% 30.14 in 9.0 mi NNE 10.4 mph - N/A Rain Light Rain
3:55 PM 39.0 °F 32.3 °F 39.0 °F 100% 30.14 in 9.0 mi NNE 10.4 mph - 0.03 in Rain Light Rain
4:14 PM 39.2 °F 33.0 °F 39.2 °F 100% 30.15 in 10.0 mi North 9.2 mph - N/A Rain Light Rain
4:24 PM 39.2 °F 32.5 °F 39.2 °F 100% 30.15 in 10.0 mi North 10.4 mph - N/A Rain Light Rain
4:27 PM 39.2 °F 32.0 °F 39.2 °F 100% 30.15 in 9.0 mi North 11.5 mph 17.3 mph N/A Rain Light Rain
4:55 PM 38.5 °F 31.6 °F 38.5 °F 100% 30.16 in 9.0 mi NNE 10.4 mph - 0.06 in Rain Light Rain
5:37 PM 37.4 °F 28.5 °F 37.4 °F 100% 30.18 in 10.0 mi NNE 15.0 mph - N/A Rain Light Rain
5:50 PM 37.4 °F 29.3 °F 37.4 °F 100% 30.19 in 10.0 mi NNE 12.7 mph - N/A Rain Light Rain
5:55 PM 36.9 °F 27.8 °F 36.9 °F 100% 30.19 in 10.0 mi NNE 15.0 mph - 0.05 in Rain Light Rain
6:55 PM 35.2 °F 26.2 °F 35.2 °F 100% 30.20 in 10.0 mi NE 13.8 mph - 0.04 in Rain Light Rain
7:03 PM 35.6 °F 27.1 °F 35.6 °F 100% 30.21 in 10.0 mi NNE 12.7 mph - N/A Rain Light Rain
7:29 PM 33.8 °F 24.8 °F 33.8 °F 100% 30.22 in 9.0 mi NNE 12.7 mph - N/A Snow Light Snow
7:39 PM 33.8 °F 27.0 °F 33.8 °F 100% 30.23 in 7.0 mi NNE 8.1 mph - N/A Snow Light Snow
7:55 PM 33.4 °F 25.4 °F 33.3 °F 99% 30.24 in 6.0 mi North 10.4 mph - 0.03 in Snow Snow
8:08 PM 33.8 °F 27.0 °F 33.8 °F 100% 30.25 in 5.0 mi North 8.1 mph - N/A Snow Light Snow
8:13 PM 33.8 °F 24.8 °F 33.8 °F 100% 30.25 in 4.0 mi North 12.7 mph 20.7 mph N/A Snow Light Snow
8:26 PM 33.8 °F 23.2 °F 33.8 °F 100% 30.24 in 3.0 mi NE 17.3 mph - N/A Snow Light Snow
8:31 PM 33.8 °F 23.9 °F 33.8 °F 100% 30.23 in 3.0 mi NE 15.0 mph - N/A Snow Light Snow
8:46 PM 32.0 °F 22.1 °F 32.0 °F 100% 30.22 in 4.0 mi NE 13.8 mph - N/A Snow Light Snow
8:49 PM 32.0 °F 21.6 °F 32.0 °F 100% 30.22 in 5.0 mi NE 15.0 mph - N/A Snow Light Snow
8:55 PM 32.9 °F 22.0 °F 32.9 °F 100% 30.22 in 6.0 mi NE 17.3 mph - 0.02 in Snow Light Snow
9:28 PM 33.8 °F 22.8 °F 33.8 °F 100% 30.19 in 10.0 mi NE 18.4 mph - N/A Rain Light Rain
9:36 PM 33.8 °F 24.3 °F 33.8 °F 100% 30.21 in 10.0 mi NE 13.8 mph - N/A   Overcast
9:55 PM 33.3 °F 23.2 °F 33.3 °F 100% 30.21 in 10.0 mi NE 15.0 mph - 0.01 in   Overcast
10:55 PM 33.6 °F 22.9 °F 33.6 °F 100% 30.22 in 10.0 mi NNE 17.3 mph 20.7 mph N/A   Overcast
11:00 PM 33.8 °F 23.9 °F 33.8 °F 100% 30.22 in 10.0 mi NE 15.0 mph 20.7 mph N/A   Overcast
11:55 PM 33.8 °F 24.3 °F 33.8 °F 100% 30.23 in 10.0 mi NNE 13.8 mph - N/A   Overcast